Flight Track Log - Related Links

Times and Time Zones

All times are in EDT time to prevent confusion due to time zone crossing. See the AWI3754 flight status page for this flight to view local times or setup timezone preferences in your user account.

Time Position Orientation Groundspeed Altitude Reporting Facility
EDT Latitude Longitude Course Direction KTS MPH feet Rate Location/Type
Mon 07:25:00 PM 33.7448 -82.0434 346° North  Level FlightAware Approximate
Mon 07:25:16 PM 33.2825 -81.9936 47° Northeast 170 196 6,100  Level Atlanta Center
Mon 07:26:00 PM 33.8720 -82.0675 352° North  Level FlightAware Approximate
Mon 07:26:16 PM 33.3478 -82.0194 342° North 117 135 7,800  Level Atlanta Center
Mon 07:27:00 PM 33.9996 -82.0888 352° North  Level FlightAware Approximate
Mon 07:27:16 PM 33.4314 -82.0300 354° North 212 244 9,900  Level Atlanta Center
Mon 07:28:00 PM 34.1264 -82.1162 347° North  Level FlightAware Approximate
Mon 07:28:16 PM 33.5192 -82.0456 352° North 261 300 11,100  Level Atlanta Center
Mon 07:29:00 PM 34.2514 -82.1481 47° Northeast  Level FlightAware Approximate
Mon 07:29:16 PM 33.6175 -82.0581 354° North 315 362 11,000  Level Atlanta Center
Mon 07:30:00 PM 34.3391 -82.0338 47° Northeast  Level FlightAware Approximate
Mon 07:30:16 PM 33.7075 -82.0711 353° North 320 368 11,000  Level Atlanta Center
Mon 07:31:16 PM 33.7975 -82.0864 352° North 325 374 11,000  Level Atlanta Center
Mon 07:32:16 PM 33.8853 -82.0994 353° North 325 374 11,000  Level Atlanta Center
Mon 07:33:16 PM 33.9733 -82.1125 353° North 320 368 11,000  Level Atlanta Center
Mon 07:34:16 PM 34.0653 -82.1256 353° North 320 368 11,000  Level Atlanta Center
Mon 07:35:16 PM 34.1503 -82.0933 17° North 310 357 11,000 100 Level Atlanta Center
Mon 07:36:16 PM 34.2347 -82.0136 38° Northeast 341 392 11,200 500 Climbing Atlanta Center
Mon 07:37:16 PM 34.3231 -81.9286 38° Northeast 365 420 12,000 400 Climbing Atlanta Center
Mon 07:38:16 PM 34.4111 -81.8458 38° Northeast 388 447 12,000  Level Atlanta Center
Mon 07:39:16 PM 34.4994 -81.7628 38° Northeast 393 452 12,000  Level Atlanta Center
Mon 07:40:12 PM 34.5817 -81.6900 36° Northeast 395 455 12,000  Level Atlanta Center
Mon 07:41:13 PM 34.6531 -81.6172 40° Northeast 332 382 12,000  Level Atlanta Center
Mon 07:42:14 PM 34.7353 -81.5442 36° Northeast 332 382 12,000  Level Atlanta Center
Mon 07:43:15 PM 34.7981 -81.4614 47° Northeast 333 383 12,000 -298 Level Atlanta Center
Mon 07:44:15 PM 34.8611 -81.3783 47° Northeast 331 381 11,400 -843 Descending Atlanta Center
Mon 07:45:16 PM 34.9181 -81.3081 45° Northeast 320 368 10,300 -656 Descending Atlanta Center
Mon 07:46:23 PM 34.9889 -81.2119 48° Northeast 307 353 10,000 -150 Descending Atlanta Center
Mon 07:47:16 PM 35.0356 -81.1519 46° Northeast 314 361 10,000 -319 Level Atlanta Center
Mon 07:48:16 PM 35.0983 -81.0761 45° Northeast 314 361 9,400 -646 Descending Atlanta Center
Mon 07:49:26 PM 35.2025 -81.0700 North 304 350 8,600 -1,226 Descending Atlanta Center
Mon 07:50:33 PM 35.2925 -81.0794 355° North 299 344 6,600 -1,736 Descending Atlanta Center
Mon 07:51:27 PM 35.3678 -81.0869 355° North 290 334 5,100 -1,289 Descending Atlanta Center
Mon 07:52:34 PM 35.4206 -81.0264 43° Northeast 241 277 4,000 -1,033 Descending Atlanta Center
Mon 07:53:29 PM 35.3817 -80.9744 133° Southeast 212 244 3,000 -1,091 Descending Atlanta Center

Login

Don't have an account? Register now (free) for customized features, flight alerts, and more!